sensor_id;sensor_type;location;lat;lon;timestamp;pressure;altitude;pressure_sealevel;temperature;humidity
46412;BME280;32113;42.012;24.870;2023-08-06T00:01:10;97606.03;;;29.02;56.06
46412;BME280;32113;42.012;24.870;2023-08-06T00:03:35;97593.38;;;28.89;56.75
46412;BME280;32113;42.012;24.870;2023-08-06T00:06:01;97604.78;;;28.89;57.17
46412;BME280;32113;42.012;24.870;2023-08-06T00:08:26;97597.81;;;28.88;57.62
46412;BME280;32113;42.012;24.870;2023-08-06T00:10:51;97597.00;;;28.88;57.13
46412;BME280;32113;42.012;24.870;2023-08-06T00:13:17;97588.78;;;28.91;57.31
46412;BME280;32113;42.012;24.870;2023-08-06T00:15:42;97581.66;;;28.91;57.07
46412;BME280;32113;42.012;24.870;2023-08-06T00:18:07;97592.06;;;28.93;57.54
46412;BME280;32113;42.012;24.870;2023-08-06T00:20:32;97589.25;;;28.78;58.13
46412;BME280;32113;42.012;24.870;2023-08-06T00:22:58;97578.75;;;28.69;58.41
46412;BME280;32113;42.012;24.870;2023-08-06T00:25:23;97573.94;;;28.65;58.27
46412;BME280;32113;42.012;24.870;2023-08-06T00:27:48;97576.59;;;28.65;58.61
46412;BME280;32113;42.012;24.870;2023-08-06T00:30:13;97584.81;;;28.70;58.43
46412;BME280;32113;42.012;24.870;2023-08-06T00:32:39;97576.59;;;28.65;58.59
46412;BME280;32113;42.012;24.870;2023-08-06T00:35:04;97578.22;;;28.66;59.01
46412;BME280;32113;42.012;24.870;2023-08-06T00:37:29;97575.63;;;28.57;59.41
46412;BME280;32113;42.012;24.870;2023-08-06T00:39:55;97572.84;;;28.51;59.50
46412;BME280;32113;42.012;24.870;2023-08-06T00:42:20;97566.25;;;28.46;59.83
46412;BME280;32113;42.012;24.870;2023-08-06T00:44:46;97564.25;;;28.40;60.24
46412;BME280;32113;42.012;24.870;2023-08-06T00:47:12;97570.06;;;28.36;60.77
46412;BME280;32113;42.012;24.870;2023-08-06T00:49:38;97569.56;;;28.32;60.81
46412;BME280;32113;42.012;24.870;2023-08-06T00:52:04;97560.78;;;28.23;61.05
46412;BME280;32113;42.012;24.870;2023-08-06T00:54:29;97555.22;;;28.26;60.59
46412;BME280;32113;42.012;24.870;2023-08-06T00:56:55;97540.72;;;28.30;60.25
46412;BME280;32113;42.012;24.870;2023-08-06T00:59:22;97548.47;;;28.32;60.04
46412;BME280;32113;42.012;24.870;2023-08-06T01:01:48;97537.75;;;28.33;59.88
46412;BME280;32113;42.012;24.870;2023-08-06T01:04:15;97542.88;;;28.27;59.87
46412;BME280;32113;42.012;24.870;2023-08-06T01:06:45;97545.00;;;28.31;59.42
46412;BME280;32113;42.012;24.870;2023-08-06T01:09:32;97538.09;;;28.30;58.98
46412;BME280;32113;42.012;24.870;2023-08-06T01:12:09;97530.50;;;28.27;59.45
46412;BME280;32113;42.012;24.870;2023-08-06T01:14:47;97527.22;;;28.25;60.00
46412;BME280;32113;42.012;24.870;2023-08-06T01:17:16;97533.28;;;28.26;60.46
46412;BME280;32113;42.012;24.870;2023-08-06T01:19:41;97538.09;;;28.30;60.47
46412;BME280;32113;42.012;24.870;2023-08-06T01:22:07;97542.53;;;28.30;60.80
46412;BME280;32113;42.012;24.870;2023-08-06T01:24:32;97548.44;;;28.24;61.03
46412;BME280;32113;42.012;24.870;2023-08-06T01:27:00;97553.72;;;28.15;61.54
46412;BME280;32113;42.012;24.870;2023-08-06T01:29:39;97559.97;;;28.14;61.25
46412;BME280;32113;42.012;24.870;2023-08-06T01:32:08;97554.72;;;28.14;61.46
46412;BME280;32113;42.012;24.870;2023-08-06T01:34:34;97544.66;;;28.10;61.68
46412;BME280;32113;42.012;24.870;2023-08-06T01:37:00;97545.31;;;28.12;61.45
46412;BME280;32113;42.012;24.870;2023-08-06T01:39:26;97538.72;;;28.16;61.45
46412;BME280;32113;42.012;24.870;2023-08-06T01:41:51;97531.16;;;28.13;61.46
46412;BME280;32113;42.012;24.870;2023-08-06T01:44:16;97529.81;;;28.09;61.71
46412;BME280;32113;42.012;24.870;2023-08-06T01:46:42;97530.19;;;28.05;61.78
46412;BME280;32113;42.012;24.870;2023-08-06T01:49:07;97539.41;;;28.01;61.54
46412;BME280;32113;42.012;24.870;2023-08-06T01:51:32;97534.44;;;27.90;61.84
46412;BME280;32113;42.012;24.870;2023-08-06T01:53:58;97529.16;;;27.81;62.18
46412;BME280;32113;42.012;24.870;2023-08-06T01:56:23;97523.25;;;27.88;62.56
46412;BME280;32113;42.012;24.870;2023-08-06T01:58:48;97529.84;;;27.84;62.42
46412;BME280;32113;42.012;24.870;2023-08-06T02:01:14;97527.84;;;27.86;62.55
46412;BME280;32113;42.012;24.870;2023-08-06T02:03:39;97526.38;;;27.83;62.75
46412;BME280;32113;42.012;24.870;2023-08-06T02:06:04;97525.56;;;27.83;62.94
46412;BME280;32113;42.012;24.870;2023-08-06T02:08:30;97526.06;;;27.86;63.00
46412;BME280;32113;42.012;24.870;2023-08-06T02:10:55;97531.97;;;27.88;62.85
46412;BME280;32113;42.012;24.870;2023-08-06T02:13:20;97538.41;;;27.94;62.62
46412;BME280;32113;42.012;24.870;2023-08-06T02:15:46;97545.47;;;27.85;63.03
46412;BME280;32113;42.012;24.870;2023-08-06T02:18:14;97544.00;;;27.83;63.10
46412;BME280;32113;42.012;24.870;2023-08-06T02:20:40;97530.97;;;27.73;63.73
46412;BME280;32113;42.012;24.870;2023-08-06T02:23:05;97530.47;;;27.69;63.97
46412;BME280;32113;42.012;24.870;2023-08-06T02:25:30;97529.97;;;27.74;63.98
46412;BME280;32113;42.012;24.870;2023-08-06T02:27:56;97536.25;;;27.81;63.79
46412;BME280;32113;42.012;24.870;2023-08-06T02:30:21;97528.03;;;27.84;63.80
46412;BME280;32113;42.012;24.870;2023-08-06T02:32:46;97527.19;;;27.84;63.83
46412;BME280;32113;42.012;24.870;2023-08-06T02:35:12;97536.56;;;27.78;64.12
46412;BME280;32113;42.012;24.870;2023-08-06T02:37:37;97537.06;;;27.81;64.12
46412;BME280;32113;42.012;24.870;2023-08-06T02:40:02;97537.91;;;27.82;64.16
46412;BME280;32113;42.012;24.870;2023-08-06T02:42:28;97541.38;;;27.83;64.23
46412;BME280;32113;42.012;24.870;2023-08-06T02:44:53;97543.66;;;27.86;63.97
46412;BME280;32113;42.012;24.870;2023-08-06T02:47:22;97543.81;;;27.92;63.88
46412;BME280;32113;42.012;24.870;2023-08-06T02:49:47;97537.22;;;27.88;63.79
46412;BME280;32113;42.012;24.870;2023-08-06T02:52:12;97524.41;;;27.85;64.22
46412;BME280;32113;42.012;24.870;2023-08-06T02:54:38;97534.28;;;27.91;64.10
46412;BME280;32113;42.012;24.870;2023-08-06T02:57:04;97524.72;;;27.90;64.04
46412;BME280;32113;42.012;24.870;2023-08-06T02:59:29;97532.31;;;27.93;63.52
46412;BME280;32113;42.012;24.870;2023-08-06T03:01:55;97528.84;;;27.93;60.34
46412;BME280;32113;42.012;24.870;2023-08-06T03:04:20;97524.06;;;27.97;57.54
46412;BME280;32113;42.012;24.870;2023-08-06T03:06:45;97528.69;;;28.03;55.92
46412;BME280;32113;42.012;24.870;2023-08-06T03:09:10;97533.44;;;27.99;55.51
46412;BME280;32113;42.012;24.870;2023-08-06T03:11:36;97529.00;;;27.91;55.80
46412;BME280;32113;42.012;24.870;2023-08-06T03:14:01;97526.69;;;27.97;54.33
46412;BME280;32113;42.012;24.870;2023-08-06T03:16:26;97527.22;;;27.92;53.53
46412;BME280;32113;42.012;24.870;2023-08-06T03:18:52;97520.28;;;27.91;52.63
46412;BME280;32113;42.012;24.870;2023-08-06T03:21:17;97516.50;;;27.93;52.66
46412;BME280;32113;42.012;24.870;2023-08-06T03:23:42;97521.09;;;27.83;52.76
46412;BME280;32113;42.012;24.870;2023-08-06T03:26:07;97525.22;;;27.69;53.11
46412;BME280;32113;42.012;24.870;2023-08-06T03:28:33;97520.91;;;27.60;53.80
46412;BME280;32113;42.012;24.870;2023-08-06T03:31:04;97520.06;;;27.59;54.52
46412;BME280;32113;42.012;24.870;2023-08-06T03:33:29;97533.94;;;27.61;54.39
46412;BME280;32113;42.012;24.870;2023-08-06T03:35:55;97545.28;;;27.62;54.03
46412;BME280;32113;42.012;24.870;2023-08-06T03:38:20;97536.69;;;27.60;54.08
46412;BME280;32113;42.012;24.870;2023-08-06T03:40:46;97529.16;;;27.65;54.23
46412;BME280;32113;42.012;24.870;2023-08-06T03:43:11;97519.56;;;27.55;54.07
46412;BME280;32113;42.012;24.870;2023-08-06T03:45:37;97516.91;;;27.47;54.69
46412;BME280;32113;42.012;24.870;2023-08-06T03:48:02;97533.06;;;27.44;56.17
46412;BME280;32113;42.012;24.870;2023-08-06T03:50:27;97524.63;;;27.40;56.46
46412;BME280;32113;42.012;24.870;2023-08-06T03:52:52;97542.75;;;27.44;55.99
46412;BME280;32113;42.012;24.870;2023-08-06T03:55:18;97541.59;;;27.46;58.64
46412;BME280;32113;42.012;24.870;2023-08-06T03:57:43;97534.69;;;27.45;63.64
46412;BME280;32113;42.012;24.870;2023-08-06T04:00:08;97532.00;;;27.28;65.19
46412;BME280;32113;42.012;24.870;2023-08-06T04:02:34;97524.13;;;27.28;65.27
46412;BME280;32113;42.012;24.870;2023-08-06T04:05:00;97535.84;;;27.42;65.17
46412;BME280;32113;42.012;24.870;2023-08-06T04:07:26;97543.75;;;27.51;65.03
46412;BME280;32113;42.012;24.870;2023-08-06T04:09:55;97533.94;;;27.61;64.70
46412;BME280;32113;42.012;24.870;2023-08-06T04:12:20;97529.47;;;27.62;63.70
46412;BME280;32113;42.012;24.870;2023-08-06T04:14:45;97523.84;;;27.57;57.59
46412;BME280;32113;42.012;24.870;2023-08-06T04:17:11;97521.72;;;27.60;57.28
46412;BME280;32113;42.012;24.870;2023-08-06T04:19:36;97525.88;;;27.63;59.02
46412;BME280;32113;42.012;24.870;2023-08-06T04:22:01;97526.84;;;27.70;61.66
46412;BME280;32113;42.012;24.870;2023-08-06T04:24:27;97525.88;;;27.79;62.45
46412;BME280;32113;42.012;24.870;2023-08-06T04:26:52;97529.16;;;27.81;63.90
46412;BME280;32113;42.012;24.870;2023-08-06T04:29:17;97523.25;;;27.88;64.10
46412;BME280;32113;42.012;24.870;2023-08-06T04:31:42;97541.34;;;27.91;64.23
46412;BME280;32113;42.012;24.870;2023-08-06T04:34:08;97540.56;;;27.99;64.23
46412;BME280;32113;42.012;24.870;2023-08-06T04:36:34;97540.88;;;28.04;64.32
46412;BME280;32113;42.012;24.870;2023-08-06T04:38:59;97539.06;;;28.04;64.62
46412;BME280;32113;42.012;24.870;2023-08-06T04:41:25;97531.50;;;28.01;64.48
46412;BME280;32113;42.012;24.870;2023-08-06T04:43:50;97539.38;;;28.10;64.45
46412;BME280;32113;42.012;24.870;2023-08-06T04:46:15;97550.91;;;28.09;64.40
46412;BME280;32113;42.012;24.870;2023-08-06T04:48:41;97557.81;;;28.10;64.41
46412;BME280;32113;42.012;24.870;2023-08-06T04:51:06;97534.63;;;28.13;64.08
46412;BME280;32113;42.012;24.870;2023-08-06T04:53:32;97527.72;;;28.12;64.38
46412;BME280;32113;42.012;24.870;2023-08-06T04:55:57;97549.28;;;28.16;63.84
46412;BME280;32113;42.012;24.870;2023-08-06T04:58:22;97560.31;;;28.19;63.89
46412;BME280;32113;42.012;24.870;2023-08-06T05:00:47;97559.47;;;28.19;63.70
46412;BME280;32113;42.012;24.870;2023-08-06T05:03:13;97549.59;;;28.21;63.40
46412;BME280;32113;42.012;24.870;2023-08-06T05:05:39;97551.59;;;28.11;63.31
46412;BME280;32113;42.012;24.870;2023-08-06T05:08:05;97541.53;;;28.14;63.62
46412;BME280;32113;42.012;24.870;2023-08-06T05:10:30;97531.16;;;28.13;62.89
46412;BME280;32113;42.012;24.870;2023-08-06T05:12:55;97534.44;;;28.15;63.72
46412;BME280;32113;42.012;24.870;2023-08-06T05:15:21;97542.69;;;28.20;63.72
46412;BME280;32113;42.012;24.870;2023-08-06T05:17:46;97544.00;;;27.99;64.73
46412;BME280;32113;42.012;24.870;2023-08-06T05:20:11;97547.78;;;27.80;64.68
46412;BME280;32113;42.012;24.870;2023-08-06T05:22:37;97543.81;;;27.67;65.38
46412;BME280;32113;42.012;24.870;2023-08-06T05:25:02;97541.50;;;27.73;65.38
46412;BME280;32113;42.012;24.870;2023-08-06T05:27:28;97532.63;;;27.74;65.82
46412;BME280;32113;42.012;24.870;2023-08-06T05:29:54;97549.69;;;27.53;65.98
46412;BME280;32113;42.012;24.870;2023-08-06T05:32:20;97565.81;;;27.58;66.62
46412;BME280;32113;42.012;24.870;2023-08-06T05:34:45;97553.84;;;27.64;66.21
46412;BME280;32113;42.012;24.870;2023-08-06T05:37:10;97528.50;;;27.63;66.17
46412;BME280;32113;42.012;24.870;2023-08-06T05:39:36;97519.78;;;27.71;66.05
46412;BME280;32113;42.012;24.870;2023-08-06T05:42:01;97517.94;;;27.54;66.83
46412;BME280;32113;42.012;24.870;2023-08-06T05:44:26;97523.50;;;27.51;67.25
46412;BME280;32113;42.012;24.870;2023-08-06T05:46:52;97542.09;;;27.50;67.22
46412;BME280;32113;42.012;24.870;2023-08-06T05:49:18;97549.50;;;27.46;67.50
46412;BME280;32113;42.012;24.870;2023-08-06T05:51:43;97527.78;;;27.44;67.80
46412;BME280;32113;42.012;24.870;2023-08-06T05:54:09;97529.75;;;27.42;68.41
46412;BME280;32113;42.012;24.870;2023-08-06T05:56:34;97517.25;;;27.44;68.62
46412;BME280;32113;42.012;24.870;2023-08-06T05:58:59;97509.69;;;27.49;68.49
46412;BME280;32113;42.012;24.870;2023-08-06T06:01:25;97535.53;;;27.54;68.43
46412;BME280;32113;42.012;24.870;2023-08-06T06:03:50;97550.66;;;27.44;67.82
46412;BME280;32113;42.012;24.870;2023-08-06T06:06:16;97545.19;;;27.28;67.99
46412;BME280;32113;42.012;24.870;2023-08-06T06:08:42;97528.72;;;27.26;69.09
46412;BME280;32113;42.012;24.870;2023-08-06T06:11:07;97531.50;;;27.25;68.78
46412;BME280;32113;42.012;24.870;2023-08-06T06:13:33;97550.25;;;27.22;68.25
46412;BME280;32113;42.012;24.870;2023-08-06T06:15:58;97578.22;;;27.14;68.22
46412;BME280;32113;42.012;24.870;2023-08-06T06:18:23;97588.88;;;27.13;67.96
46412;BME280;32113;42.012;24.870;2023-08-06T06:20:48;97576.72;;;27.12;67.76
46412;BME280;32113;42.012;24.870;2023-08-06T06:23:14;97555.00;;;27.18;68.24
46412;BME280;32113;42.012;24.870;2023-08-06T06:25:49;97540.25;;;27.25;68.74
46412;BME280;32113;42.012;24.870;2023-08-06T06:28:16;97533.50;;;27.31;68.58
46412;BME280;32113;42.012;24.870;2023-08-06T06:30:41;97532.03;;;27.37;68.23
46412;BME280;32113;42.012;24.870;2023-08-06T06:33:07;97523.50;;;27.35;68.38
46412;BME280;32113;42.012;24.870;2023-08-06T06:35:32;97516.41;;;27.44;69.45
46412;BME280;32113;42.012;24.870;2023-08-06T06:37:57;97506.72;;;27.44;70.33
46412;BME280;32113;42.012;24.870;2023-08-06T06:40:22;97498.97;;;27.34;70.14
46412;BME280;32113;42.012;24.870;2023-08-06T06:42:48;97496.31;;;27.34;70.75
46412;BME280;32113;42.012;24.870;2023-08-06T06:45:13;97497.47;;;27.32;70.67
46412;BME280;32113;42.012;24.870;2023-08-06T06:47:38;97498.66;;;27.37;70.50
46412;BME280;32113;42.012;24.870;2023-08-06T06:50:04;97484.00;;;27.35;70.58
46412;BME280;32113;42.012;24.870;2023-08-06T06:52:29;97487.28;;;27.37;71.27
46412;BME280;32113;42.012;24.870;2023-08-06T06:54:54;97490.94;;;27.44;70.54
46412;BME280;32113;42.012;24.870;2023-08-06T06:57:20;97499.81;;;27.51;71.38
46412;BME280;32113;42.012;24.870;2023-08-06T06:59:45;97504.13;;;27.61;70.30
46412;BME280;32113;42.012;24.870;2023-08-06T07:02:10;97511.22;;;27.77;70.29
46412;BME280;32113;42.012;24.870;2023-08-06T07:04:36;97532.31;;;27.85;69.68
46412;BME280;32113;42.012;24.870;2023-08-06T07:07:01;97548.13;;;27.93;69.46
46412;BME280;32113;42.012;24.870;2023-08-06T07:09:26;97552.25;;;27.96;69.35
46412;BME280;32113;42.012;24.870;2023-08-06T07:11:52;97553.72;;;27.99;70.22
46412;BME280;32113;42.012;24.870;2023-08-06T07:14:17;97559.97;;;28.14;70.13
46412;BME280;32113;42.012;24.870;2023-08-06T07:16:42;97561.13;;;28.20;70.11
46412;BME280;32113;42.012;24.870;2023-08-06T07:19:08;97568.56;;;28.33;69.22
46412;BME280;32113;42.012;24.870;2023-08-06T07:21:33;97567.41;;;28.44;67.68
46412;BME280;32113;42.012;24.870;2023-08-06T07:23:58;97564.94;;;28.51;66.75
46412;BME280;32113;42.012;24.870;2023-08-06T07:26:24;97576.44;;;28.58;67.10
46412;BME280;32113;42.012;24.870;2023-08-06T07:28:50;97568.19;;;28.69;66.47
46412;BME280;32113;42.012;24.870;2023-08-06T07:31:15;97572.00;;;28.67;65.83
46412;BME280;32113;42.012;24.870;2023-08-06T07:33:40;97572.63;;;28.69;66.82
46412;BME280;32113;42.012;24.870;2023-08-06T07:36:10;97574.25;;;28.78;65.20
46412;BME280;32113;42.012;24.870;2023-08-06T07:38:36;97568.47;;;28.83;64.60
46412;BME280;32113;42.012;24.870;2023-08-06T07:41:02;97567.97;;;28.88;64.64
46412;BME280;32113;42.012;24.870;2023-08-06T07:43:27;97565.81;;;29.00;63.82
46412;BME280;32113;42.012;24.870;2023-08-06T07:45:52;97559.97;;;29.13;62.14
46412;BME280;32113;42.012;24.870;2023-08-06T07:48:18;97554.19;;;29.17;60.95
46412;BME280;32113;42.012;24.870;2023-08-06T07:50:43;97560.34;;;29.41;60.30
46412;BME280;32113;42.012;24.870;2023-08-06T07:53:15;97556.69;;;29.50;59.05
46412;BME280;32113;42.012;24.870;2023-08-06T07:55:40;97554.94;;;29.66;59.02
46412;BME280;32113;42.012;24.870;2023-08-06T07:58:05;97556.41;;;29.69;58.70
46412;BME280;32113;42.012;24.870;2023-08-06T08:00:31;97571.75;;;29.73;57.47
46412;BME280;32113;42.012;24.870;2023-08-06T08:02:56;97579.59;;;29.58;56.04
46412;BME280;32113;42.012;24.870;2023-08-06T08:05:21;97563.75;;;29.50;57.17
46412;BME280;32113;42.012;24.870;2023-08-06T08:07:46;97578.38;;;29.37;56.94
46412;BME280;32113;42.012;24.870;2023-08-06T08:10:12;97578.88;;;29.33;56.76
46412;BME280;32113;42.012;24.870;2023-08-06T08:12:37;97574.84;;;29.14;56.22
46412;BME280;32113;42.012;24.870;2023-08-06T08:15:02;97575.25;;;28.85;54.16
46412;BME280;32113;42.012;24.870;2023-08-06T08:17:28;97577.75;;;28.62;55.58
46412;BME280;32113;42.012;24.870;2023-08-06T08:19:53;97604.97;;;28.46;56.50
46412;BME280;32113;42.012;24.870;2023-08-06T08:22:19;97608.78;;;28.35;58.67
46412;BME280;32113;42.012;24.870;2023-08-06T08:24:44;97618.97;;;28.13;60.34
46412;BME280;32113;42.012;24.870;2023-08-06T08:27:09;97620.09;;;27.94;63.21
46412;BME280;32113;42.012;24.870;2023-08-06T08:29:35;97607.09;;;27.84;65.99
46412;BME280;32113;42.012;24.870;2023-08-06T08:32:00;97594.53;;;27.78;66.73
46412;BME280;32113;42.012;24.870;2023-08-06T08:34:25;97580.88;;;27.74;67.84
46412;BME280;32113;42.012;24.870;2023-08-06T08:36:50;97588.84;;;27.48;67.18
46412;BME280;32113;42.012;24.870;2023-08-06T08:39:16;97588.75;;;27.14;66.72
46412;BME280;32113;42.012;24.870;2023-08-06T08:41:41;97587.50;;;27.00;68.67
46412;BME280;32113;42.012;24.870;2023-08-06T08:44:10;97585.38;;;26.77;68.79
46412;BME280;32113;42.012;24.870;2023-08-06T08:46:36;97593.84;;;26.63;68.64
46412;BME280;32113;42.012;24.870;2023-08-06T08:49:01;97593.75;;;26.46;67.24
46412;BME280;32113;42.012;24.870;2023-08-06T08:51:27;97596.81;;;26.42;68.10
46412;BME280;32113;42.012;24.870;2023-08-06T08:53:53;97591.13;;;26.46;69.74
46412;BME280;32113;42.012;24.870;2023-08-06T08:56:21;97597.66;;;26.42;70.28
46412;BME280;32113;42.012;24.870;2023-08-06T08:58:46;97589.50;;;26.54;71.95
46412;BME280;32113;42.012;24.870;2023-08-06T09:01:13;97594.97;;;26.60;67.90
46412;BME280;32113;42.012;24.870;2023-08-06T09:03:39;97594.75;;;26.72;67.92
46412;BME280;32113;42.012;24.870;2023-08-06T09:06:05;97600.56;;;26.84;69.40
46412;BME280;32113;42.012;24.870;2023-08-06T09:08:36;97595.66;;;26.89;66.43
46412;BME280;32113;42.012;24.870;2023-08-06T09:11:03;97582.75;;;26.77;62.24
46412;BME280;32113;42.012;24.870;2023-08-06T09:13:29;97580.00;;;26.87;63.33
46412;BME280;32113;42.012;24.870;2023-08-06T09:15:55;97575.69;;;27.05;65.83
46412;BME280;32113;42.012;24.870;2023-08-06T09:18:26;97578.09;;;27.33;67.47
46412;BME280;32113;42.012;24.870;2023-08-06T09:20:53;97572.00;;;27.92;67.45
46412;BME280;32113;42.012;24.870;2023-08-06T09:23:18;97567.38;;;28.52;64.90
46412;BME280;32113;42.012;24.870;2023-08-06T09:25:45;97570.91;;;29.01;62.39
46412;BME280;32113;42.012;24.870;2023-08-06T09:28:10;97568.59;;;29.38;60.62
46412;BME280;32113;42.012;24.870;2023-08-06T09:30:36;97556.00;;;29.80;59.10
46412;BME280;32113;42.012;24.870;2023-08-06T09:33:02;97557.97;;;30.25;57.08
46412;BME280;32113;42.012;24.870;2023-08-06T09:35:31;97551.53;;;30.42;52.28
46412;BME280;32113;42.012;24.870;2023-08-06T09:38:06;97557.34;;;30.76;54.05
46412;BME280;32113;42.012;24.870;2023-08-06T09:40:32;97543.63;;;31.03;50.30
46412;BME280;32113;42.012;24.870;2023-08-06T09:42:58;97546.50;;;31.23;50.62
46412;BME280;32113;42.012;24.870;2023-08-06T09:45:28;97540.91;;;31.48;52.12
46412;BME280;32113;42.012;24.870;2023-08-06T09:47:56;97545.72;;;31.81;51.78
46412;BME280;32113;42.012;24.870;2023-08-06T09:50:22;97541.59;;;32.01;51.00
46412;BME280;32113;42.012;24.870;2023-08-06T09:52:48;97541.59;;;31.94;51.02
46412;BME280;32113;42.012;24.870;2023-08-06T09:55:14;97542.13;;;32.11;47.34
46412;BME280;32113;42.012;24.870;2023-08-06T09:57:40;97537.28;;;31.93;46.37
46412;BME280;32113;42.012;24.870;2023-08-06T10:00:07;97538.28;;;31.92;46.27
46412;BME280;32113;42.012;24.870;2023-08-06T10:02:34;97535.34;;;31.86;44.61
46412;BME280;32113;42.012;24.870;2023-08-06T10:05:00;97530.75;;;31.95;44.24
46412;BME280;32113;42.012;24.870;2023-08-06T10:07:26;97521.66;;;32.05;44.33
46412;BME280;32113;42.012;24.870;2023-08-06T10:09:52;97521.00;;;32.24;42.85
46412;BME280;32113;42.012;24.870;2023-08-06T10:12:17;97517.69;;;32.44;43.56
46412;BME280;32113;42.012;24.870;2023-08-06T10:14:44;97519.38;;;32.52;43.36
46412;BME280;32113;42.012;24.870;2023-08-06T10:17:10;97515.00;;;32.80;43.07
46412;BME280;32113;42.012;24.870;2023-08-06T10:19:36;97516.50;;;32.96;41.93
46412;BME280;32113;42.012;24.870;2023-08-06T10:22:11;97504.31;;;33.01;39.68
46412;BME280;32113;42.012;24.870;2023-08-06T10:27:34;97517.03;;;33.26;40.37
46412;BME280;32113;42.012;24.870;2023-08-06T10:32:47;97506.94;;;33.64;39.52
46412;BME280;32113;42.012;24.870;2023-08-06T10:35:27;97494.47;;;33.64;38.96
46412;BME280;32113;42.012;24.870;2023-08-06T10:37:53;97503.06;;;33.80;39.68
46412;BME280;32113;42.012;24.870;2023-08-06T10:40:22;97490.97;;;33.71;37.48
46412;BME280;32113;42.012;24.870;2023-08-06T10:42:49;97492.41;;;33.66;37.13
46412;BME280;32113;42.012;24.870;2023-08-06T10:45:15;97505.28;;;33.56;38.07
46412;BME280;32113;42.012;24.870;2023-08-06T10:47:41;97520.56;;;33.34;36.22
46412;BME280;32113;42.012;24.870;2023-08-06T10:50:07;97514.75;;;33.10;37.66
46412;BME280;32113;42.012;24.870;2023-08-06T10:52:33;97512.69;;;33.05;38.86
46412;BME280;32113;42.012;24.870;2023-08-06T10:54:58;97509.81;;;33.00;37.86
46412;BME280;32113;42.012;24.870;2023-08-06T10:57:24;97515.03;;;32.86;38.30
46412;BME280;32113;42.012;24.870;2023-08-06T10:59:49;97515.97;;;32.65;38.13
46412;BME280;32113;42.012;24.870;2023-08-06T11:02:14;97511.88;;;32.62;38.38
46412;BME280;32113;42.012;24.870;2023-08-06T11:04:40;97506.94;;;32.59;37.70
46412;BME280;32113;42.012;24.870;2023-08-06T11:07:06;97514.41;;;32.77;39.12
46412;BME280;32113;42.012;24.870;2023-08-06T11:09:32;97514.97;;;33.08;38.48
46412;BME280;32113;42.012;24.870;2023-08-06T11:11:57;97512.75;;;33.25;36.93
46412;BME280;32113;42.012;24.870;2023-08-06T11:14:22;97518.72;;;33.41;37.29
46412;BME280;32113;42.012;24.870;2023-08-06T11:16:47;97516.75;;;33.70;37.71
46412;BME280;32113;42.012;24.870;2023-08-06T11:19:13;97512.84;;;33.79;36.22
46412;BME280;32113;42.012;24.870;2023-08-06T11:21:40;97506.31;;;33.95;36.52
46412;BME280;32113;42.012;24.870;2023-08-06T11:24:05;97503.06;;;33.93;34.54
46412;BME280;32113;42.012;24.870;2023-08-06T11:26:31;97503.47;;;34.04;35.78
46412;BME280;32113;42.012;24.870;2023-08-06T11:28:56;97506.75;;;34.13;34.64
46412;BME280;32113;42.012;24.870;2023-08-06T11:31:22;97497.94;;;34.19;34.86
46412;BME280;32113;42.012;24.870;2023-08-06T11:33:49;97501.19;;;34.01;34.18
46412;BME280;32113;42.012;24.870;2023-08-06T11:36:15;97502.84;;;33.81;33.87
46412;BME280;32113;42.012;24.870;2023-08-06T11:38:40;97515.94;;;33.63;33.86
46412;BME280;32113;42.012;24.870;2023-08-06T11:41:06;97514.63;;;33.38;34.90
46412;BME280;32113;42.012;24.870;2023-08-06T11:43:31;97508.25;;;33.19;34.75
46412;BME280;32113;42.012;24.870;2023-08-06T11:45:58;97521.50;;;33.06;35.32
46412;BME280;32113;42.012;24.870;2023-08-06T11:48:25;97524.06;;;32.92;36.09
46412;BME280;32113;42.012;24.870;2023-08-06T11:50:53;97532.78;;;32.79;35.08
46412;BME280;32113;42.012;24.870;2023-08-06T11:53:19;97536.16;;;32.66;34.75
46412;BME280;32113;42.012;24.870;2023-08-06T11:55:44;97532.69;;;32.59;34.73
46412;BME280;32113;42.012;24.870;2023-08-06T11:58:10;97530.38;;;32.49;35.39
46412;BME280;32113;42.012;24.870;2023-08-06T12:00:37;97528.91;;;32.46;35.39
46412;BME280;32113;42.012;24.870;2023-08-06T12:03:04;97531.31;;;32.41;35.68
46412;BME280;32113;42.012;24.870;2023-08-06T12:05:30;97526.19;;;32.40;35.89
46412;BME280;32113;42.012;24.870;2023-08-06T12:07:57;97535.34;;;32.37;36.77
46412;BME280;32113;42.012;24.870;2023-08-06T12:10:24;97538.00;;;32.37;36.45
46412;BME280;32113;42.012;24.870;2023-08-06T12:12:49;97540.25;;;32.33;36.37
46412;BME280;32113;42.012;24.870;2023-08-06T12:15:15;97544.34;;;32.36;35.56
46412;BME280;32113;42.012;24.870;2023-08-06T12:17:40;97536.47;;;32.21;34.87
46412;BME280;32113;42.012;24.870;2023-08-06T12:20:07;97533.94;;;32.12;35.94
46412;BME280;32113;42.012;24.870;2023-08-06T12:22:32;97541.16;;;32.19;35.14
46412;BME280;32113;42.012;24.870;2023-08-06T12:25:00;97540.09;;;32.13;35.18
46412;BME280;32113;42.012;24.870;2023-08-06T12:27:26;97543.56;;;32.14;35.08
46412;BME280;32113;42.012;24.870;2023-08-06T12:29:51;97544.53;;;32.06;35.55
46412;BME280;32113;42.012;24.870;2023-08-06T12:32:17;97539.25;;;32.12;34.72
46412;BME280;32113;42.012;24.870;2023-08-06T12:34:42;97542.75;;;32.13;35.71
46412;BME280;32113;42.012;24.870;2023-08-06T12:37:08;97536.00;;;32.10;36.08
46412;BME280;32113;42.012;24.870;2023-08-06T12:39:33;97535.22;;;32.17;36.64
46412;BME280;32113;42.012;24.870;2023-08-06T12:41:59;97533.63;;;32.22;36.97
46412;BME280;32113;42.012;24.870;2023-08-06T12:44:25;97532.59;;;32.23;36.11
46412;BME280;32113;42.012;24.870;2023-08-06T12:46:51;97536.03;;;32.17;35.24
46412;BME280;32113;42.012;24.870;2023-08-06T12:49:17;97535.81;;;32.12;35.69